Time;durP1;ratioP1;P1;durP2;ratioP2;P2;SDS_P1;SDS_P2;PMS_P1;PMS_P2;Temp;Humidity;BMP_temperature;BMP_pressure;BME280_temperature;BME280_humidity;BME280_pressure;Samples;Min_cycle;Max_cycle;Signal;HPM_P1;HPM_P2
2021/05/29 08:49:36;;;;;;;11.48;4.30;;;;;;;17.47;43.55;101946.94;5054238;28;20413;-77
2021/05/29 08:52:03;;;;;;;6.97;4.03;;;;;;;15.12;48.57;101948.25;5056211;28;20028;-77
2021/05/29 08:54:29;;;;;;;10.73;5.03;;;;;;;13.42;55.49;101958.03;5053912;28;20033;-78
2021/05/29 08:56:54;;;;;;;10.95;4.78;;;;;;;12.49;57.73;101969.38;5061093;28;20483;-77
2021/05/29 08:59:42;;;;;;;12.23;5.13;;;;;;;12.16;60.45;101972.22;5054143;28;20029;-77
2021/05/29 09:02:07;;;;;;;11.95;5.53;;;;;;;11.56;62.46;101976.72;5055548;28;20109;-78
2021/05/29 09:04:33;;;;;;;13.48;6.20;;;;;;;11.31;62.52;101975.72;5081982;28;20127;-76
2021/05/29 09:06:59;;;;;;;9.80;4.93;;;;;;;11.20;62.51;101975.19;5059676;28;20437;-77
2021/05/29 09:09:24;;;;;;;13.70;6.20;;;;;;;11.24;64.15;101969.78;5056689;28;20493;-76
2021/05/29 09:12:09;;;;;;;10.05;5.50;;;;;;;11.32;61.46;101985.38;5049232;28;20124;-78
2021/05/29 09:14:37;;;;;;;12.75;5.75;;;;;;;11.29;62.66;101978.41;5055580;28;20056;-77
2021/05/29 09:17:07;;;;;;;14.32;6.32;;;;;;;11.42;63.61;101980.66;5047590;28;20432;-78
2021/05/29 09:20:03;;;;;;;14.25;5.43;;;;;;;11.63;62.12;101986.16;5069915;28;20052;-79
2021/05/29 09:22:51;;;;;;;12.23;6.50;;;;;;;11.50;60.65;101997.13;5068513;28;20041;-78
2021/05/29 09:25:24;;;;;;;14.40;7.18;;;;;;;11.38;61.23;101988.69;5066442;28;20036;-78
2021/05/29 09:28:04;;;;;;;13.05;6.82;;;;;;;11.71;61.63;101999.09;5076601;28;20036;-79
2021/05/29 09:30:39;;;;;;;10.18;7.07;;;;;;;11.90;61.85;101982.72;5080163;28;20028;-80
2021/05/29 09:33:22;;;;;;;14.60;8.70;;;;;;;12.10;62.34;101996.13;5069899;28;20056;-78
2021/05/29 09:36:04;;;;;;;15.43;9.20;;;;;;;11.92;60.95;101955.44;5068920;28;20096;-79
2021/05/29 09:38:34;;;;;;;14.88;8.63;;;;;;;12.02;59.32;101991.13;5072200;28;20028;-77
2021/05/29 09:40:59;;;;;;;13.45;8.57;;;;;;;12.11;61.49;101995.22;5073947;28;20077;-79
2021/05/29 09:43:25;;;;;;;15.48;9.20;;;;;;;12.17;60.07;101997.69;5072488;28;20543;-78
2021/05/29 09:45:58;;;;;;;14.68;9.75;;;;;;;12.18;60.46;101998.53;5069025;28;20021;-78
2021/05/29 09:48:29;;;;;;;15.75;9.85;;;;;;;12.16;60.50;102005.63;5068712;28;20045;-78
2021/05/29 09:51:12;;;;;;;18.92;10.75;;;;;;;12.44;58.58;102002.91;5051106;28;20045;-77
2021/05/29 09:53:42;;;;;;;14.38;9.25;;;;;;;12.23;59.38;101996.59;5050198;28;20496;-77
2021/05/29 09:56:44;;;;;;;;;;;;;;;12.34;59.41;102012.91;5054975;28;20040;-77
2021/05/29 09:59:11;;;;;;;13.07;8.60;;;;;;;12.21;60.20;101995.81;5052496;28;20009;-76
2021/05/29 10:02:27;;;;;;;12.98;8.73;;;;;;;12.35;58.79;102006.75;5038158;28;20540;-80
2021/05/29 10:04:56;;;;;;;15.38;8.40;;;;;;;12.96;57.15;101990.56;5017808;28;20049;-85
2021/05/29 10:07:41;;;;;;;17.42;9.10;;;;;;;12.89;55.92;101960.00;5042834;28;20013;-84
2021/05/29 10:10:57;;;;;;;;;;;;;;;;;;;;;
2021/05/29 10:13:25;;;;;;;12.52;7.72;;;;;;;12.98;58.69;101946.50;5047713;28;20049;-84
2021/05/29 10:15:50;;;;;;;14.02;8.55;;;;;;;12.84;57.71;101988.34;5060784;28;20116;-81
2021/05/29 10:18:16;;;;;;;12.07;8.30;;;;;;;12.89;57.90;101997.84;5048746;28;20021;-80
2021/05/29 10:20:41;;;;;;;13.05;7.88;;;;;;;12.79;57.41;101992.03;5051254;28;20369;-84
2021/05/29 10:23:06;;;;;;;12.15;7.43;;;;;;;13.12;59.15;101993.50;5036516;28;20025;-84
2021/05/29 10:25:35;;;;;;;11.10;6.85;;;;;;;13.13;55.78;101982.00;5054451;28;20021;-86
2021/05/29 10:28:01;;;;;;;9.02;6.43;;;;;;;13.49;55.37;102006.22;5050397;28;20029;-84
2021/05/29 10:30:29;;;;;;;10.77;6.68;;;;;;;14.09;54.42;101998.56;5056605;28;20036;-81
2021/05/29 10:33:12;;;;;;;12.65;6.50;;;;;;;14.37;53.63;102009.72;5048830;28;20029;-81
2021/05/29 10:35:39;;;;;;;16.52;7.90;;;;;;;14.49;51.17;101996.91;5055401;28;20032;-81
2021/05/29 10:38:07;;;;;;;10.93;6.40;;;;;;;16.44;49.26;101997.53;5049239;28;20215;-81
2021/05/29 10:40:36;;;;;;;12.43;7.40;;;;;;;18.85;41.09;101989.50;5053306;28;20022;-82
2021/05/29 10:43:12;;;;;;;;;;;;;;;19.55;40.07;102000.19;5053467;28;20024;-80
2021/05/29 10:45:40;;;;;;;9.63;6.35;;;;;;;19.01;42.40;101976.94;5051126;28;20016;-82
2021/05/29 10:48:08;;;;;;;11.50;6.45;;;;;;;18.82;40.38;102000.34;5038960;28;20049;-85
2021/05/29 10:53:38;;;;;;;10.68;5.88;;;;;;;20.27;38.57;102012.41;5052540;28;20044;-83
2021/05/29 10:56:50;;;;;;;1026.55;711.95;;;;;;;20.95;38.85;102007.78;5047850;28;20496;-89
2021/05/29 10:59:20;;;;;;;37.78;30.13;;;;;;;21.64;35.78;102001.09;5039904;28;20479;-90
2021/05/29 11:01:47;;;;;;;42.42;29.83;;;;;;;21.68;36.23;102005.25;5040685;28;20038;-89
2021/05/29 11:04:19;;;;;;;23.65;15.10;;;;;;;21.50;34.80;102006.56;5041744;28;20025;-90
2021/05/29 11:06:55;;;;;;;78.63;45.55;;;;;;;22.81;35.42;102001.19;5040574;28;20025;-86
2021/05/29 11:09:26;;;;;;;60.25;53.42;;;;;;;23.01;33.10;102006.84;5047221;28;20025;-86
2021/05/29 11:11:53;;;;;;;101.03;93.53;;;;;;;21.59;36.13;102007.75;5045646;28;20025;-84
2021/05/29 11:14:56;;;;;;;263.70;246.68;;;;;;;23.26;34.18;102003.94;5051127;28;20016;-85
2021/05/29 11:21:06;;;;;;;11.40;8.20;;;;;;;27.16;26.31;102000.94;5055570;28;20032;-85
2021/05/29 11:23:32;;;;;;;25.85;23.20;;;;;;;26.46;28.21;101996.81;5043352;28;20048;-85
2021/05/29 11:25:57;;;;;;;9.68;4.95;;;;;;;22.78;32.29;101990.72;5046662;28;20400;-82
2021/05/29 11:28:23;;;;;;;10.43;4.90;;;;;;;21.02;37.07;102003.72;5042779;28;20037;-82
2021/05/29 11:30:49;;;;;;;10.10;5.57;;;;;;;19.62;40.70;102007.72;5050990;28;20029;-82
2021/05/29 11:33:16;;;;;;;8.25;4.80;;;;;;;19.49;41.46;102008.63;5055510;28;20028;-83
2021/05/29 11:35:46;;;;;;;8.40;5.18;;;;;;;18.47;43.94;102014.78;5054066;28;20033;-83
2021/05/29 11:38:30;;;;;;;10.02;5.40;;;;;;;16.95;47.74;102016.19;5048015;28;20506;-84
2021/05/29 11:41:12;;;;;;;10.05;5.53;;;;;;;15.83;50.80;102013.84;5050248;28;20032;-82
2021/05/29 11:43:45;;;;;;;12.20;6.55;;;;;;;16.15;51.59;102014.94;5051676;28;20062;-90
2021/05/29 11:46:28;;;;;;;10.05;7.13;;;;;;;15.82;50.13;102017.41;5051082;28;20033;-87
2021/05/29 11:49:08;;;;;;;13.68;6.70;;;;;;;16.06;48.32;102018.88;5050762;28;20041;-85
2021/05/29 11:51:38;;;;;;;9.50;5.18;;;;;;;15.24;54.33;102006.84;5050569;28;20499;-82
2021/05/29 11:54:16;;;;;;;10.65;6.15;;;;;;;14.98;54.53;101989.53;5047126;28;20484;-81
2021/05/29 11:56:44;;;;;;;11.13;5.93;;;;;;;14.87;53.93;102004.09;5038228;28;20056;-89
2021/05/29 11:59:12;;;;;;;11.95;6.30;;;;;;;14.98;52.28;101994.81;5043840;28;20021;-84
2021/05/29 12:01:47;;;;;;;8.75;5.85;;;;;;;15.07;54.69;102002.31;5038469;28;20043;-82
2021/05/29 12:04:25;;;;;;;15.02;6.20;;;;;;;14.67;54.14;102004.97;5035634;28;20035;-80
2021/05/29 12:06:58;;;;;;;12.07;6.30;;;;;;;13.96;57.61;101995.56;5037343;28;20033;-83
2021/05/29 12:09:40;;;;;;;10.48;6.75;;;;;;;14.51;55.81;102017.09;5046870;28;20532;-86
2021/05/29 12:12:07;;;;;;;32.63;16.88;;;;;;;14.09;58.79;102012.66;5048166;28;20025;-83
2021/05/29 12:14:35;;;;;;;12.20;7.25;;;;;;;14.19;57.80;102026.38;5057502;28;20027;-81
2021/05/29 12:17:12;;;;;;;52.17;32.67;;;;;;;15.07;55.77;102018.22;5062070;28;20027;-81
2021/05/29 12:20:31;;;;;;;16.27;8.77;;;;;;;15.32;51.61;102017.97;5049086;28;20028;-83
2021/05/29 12:23:03;;;;;;;17.63;8.80;;;;;;;15.41;51.66;102015.75;5065988;28;20033;-85
2021/05/29 12:25:29;;;;;;;9.75;7.13;;;;;;;14.83;51.62;102006.91;5045092;28;20029;-88
2021/05/29 12:27:55;;;;;;;12.55;6.95;;;;;;;14.29;57.00;102040.94;5071181;28;20303;-83
2021/05/29 12:30:23;;;;;;;11.07;6.55;;;;;;;14.53;56.49;102033.78;5066157;28;20021;-82
2021/05/29 12:32:49;;;;;;;15.40;9.85;;;;;;;14.43;56.60;102043.00;5066983;28;20056;-87
2021/05/29 12:35:32;;;;;;;11.90;7.18;;;;;;;14.34;55.81;102027.50;5057951;28;20085;-84
2021/05/29 12:38:19;;;;;;;13.60;7.25;;;;;;;13.84;58.43;102047.09;5064921;28;20174;-89
